Time;durP1;ratioP1;P1;durP2;ratioP2;P2;SDS_P1;SDS_P2;PMS_P1;PMS_P2;Temp;Humidity;BMP_temperature;BMP_pressure;BME280_temperature;BME280_humidity;BME280_pressure;Samples;Min_cycle;Max_cycle;Signal;HPM_P1;HPM_P2
2023/03/23 00:00:57;;;;;;;7.93;4.90;;;10.20;99.90;;;;;;4979853;28;20234;-81
2023/03/23 00:03:26;;;;;;;8.47;5.10;;;10.20;99.90;;;;;;4973276;28;20237;-80
2023/03/23 00:05:53;;;;;;;9.43;5.00;;;10.20;99.90;;;;;;4978656;28;20230;-80
2023/03/23 00:08:21;;;;;;;8.10;5.30;;;10.10;99.90;;;;;;4977394;28;20308;-80
2023/03/23 00:10:52;;;;;;;6.80;5.20;;;10.10;99.90;;;;;;4973144;28;20634;-80
2023/03/23 00:13:19;;;;;;;6.73;5.27;;;10.00;99.90;;;;;;4978205;28;20226;-80
2023/03/23 00:15:48;;;;;;;9.23;5.53;;;10.00;99.90;;;;;;4979944;28;20229;-80
2023/03/23 00:18:21;;;;;;;12.23;5.77;;;10.00;99.90;;;;;;4978358;28;20317;-79
2023/03/23 00:20:48;;;;;;;7.00;6.27;;;10.00;99.90;;;;;;4979628;28;20277;-80
2023/03/23 00:23:18;;;;;;;9.97;6.37;;;9.90;99.90;;;;;;4982082;28;20229;-80
2023/03/23 00:25:46;;;;;;;7.37;6.20;;;9.90;99.90;;;;;;4984235;28;20219;-80
2023/03/23 00:28:15;;;;;;;8.13;6.17;;;9.80;99.90;;;;;;4976708;28;20225;-79
2023/03/23 00:30:44;;;;;;;7.37;6.10;;;9.70;99.90;;;;;;4995878;28;20228;-80
2023/03/23 00:33:13;;;;;;;9.93;6.67;;;9.80;99.90;;;;;;4986847;28;20888;-80
2023/03/23 00:35:41;;;;;;;7.90;6.80;;;9.70;99.90;;;;;;4983713;28;20840;-80
2023/03/23 00:38:09;;;;;;;11.03;7.37;;;9.60;99.90;;;;;;4996068;28;20228;-80
2023/03/23 00:40:36;;;;;;;11.10;7.90;;;9.60;99.90;;;;;;5000157;28;20233;-80
2023/03/23 00:43:04;;;;;;;12.93;8.70;;;9.60;99.90;;;;;;4981495;28;20216;-80
2023/03/23 00:45:34;;;;;;;8.60;7.80;;;9.50;99.90;;;;;;4983007;28;20230;-81
2023/03/23 00:48:04;;;;;;;10.70;9.07;;;9.50;99.90;;;;;;4985585;28;20257;-80
2023/03/23 00:50:31;;;;;;;11.00;8.80;;;9.40;99.90;;;;;;4984939;28;20235;-81
2023/03/23 00:52:58;;;;;;;9.53;7.90;;;9.40;99.90;;;;;;4981139;28;20244;-80
2023/03/23 00:55:26;;;;;;;12.37;9.20;;;9.40;99.90;;;;;;4978285;28;20231;-80
2023/03/23 00:57:53;;;;;;;11.67;9.80;;;9.30;99.90;;;;;;4980948;28;20229;-81
2023/03/23 01:00:22;;;;;;;10.93;9.20;;;9.30;99.90;;;;;;4978570;28;20237;-80
2023/03/23 01:02:51;;;;;;;12.07;10.07;;;9.30;99.90;;;;;;4995864;28;20320;-80
2023/03/23 01:05:19;;;;;;;14.67;10.37;;;9.30;99.90;;;;;;4982859;28;20225;-80
2023/03/23 01:07:46;;;;;;;12.13;10.80;;;9.20;99.90;;;;;;4983566;28;20232;-80
2023/03/23 01:10:15;;;;;;;14.93;10.13;;;9.20;99.90;;;;;;4985530;28;20946;-81
2023/03/23 01:12:44;;;;;;;14.17;10.97;;;9.20;99.90;;;;;;4979824;28;20226;-81
2023/03/23 01:15:15;;;;;;;12.63;10.60;;;9.20;99.90;;;;;;4979583;28;20719;-81
2023/03/23 01:17:42;;;;;;;12.43;10.07;;;9.20;99.90;;;;;;5001061;28;20232;-80
2023/03/23 01:20:11;;;;;;;14.43;10.23;;;9.10;99.90;;;;;;4980285;28;20595;-80
2023/03/23 01:22:38;;;;;;;14.20;11.23;;;9.10;99.90;;;;;;4979290;28;20220;-80
2023/03/23 01:25:05;;;;;;;11.60;10.13;;;9.10;99.90;;;;;;4980662;28;20636;-81
2023/03/23 01:27:32;;;;;;;14.63;11.03;;;9.10;99.90;;;;;;4982397;28;20231;-80
2023/03/23 01:29:59;;;;;;;13.07;10.83;;;9.10;99.90;;;;;;4981373;28;20220;-80
2023/03/23 01:32:25;;;;;;;12.33;10.70;;;9.10;99.90;;;;;;4981589;28;20234;-80
2023/03/23 01:34:52;;;;;;;14.67;10.80;;;9.10;99.90;;;;;;4981945;28;20229;-81
2023/03/23 01:37:25;;;;;;;12.40;10.40;;;9.10;99.90;;;;;;4974643;28;20334;-80
2023/03/23 01:39:53;;;;;;;15.83;10.53;;;9.10;99.90;;;;;;4977048;28;20245;-81
2023/03/23 01:42:22;;;;;;;14.33;10.40;;;9.10;99.90;;;;;;4981081;28;20224;-79
2023/03/23 01:45:27;;;;;;;14.17;11.03;;;9.10;99.90;;;;;;4977770;28;20778;-80
2023/03/23 01:48:00;;;;;;;12.43;10.27;;;9.00;99.90;;;;;;4979608;28;20306;-80
2023/03/23 01:50:28;;;;;;;17.00;10.93;;;9.00;99.90;;;;;;4974535;28;20215;-80
2023/03/23 01:53:00;;;;;;;15.93;11.03;;;9.10;99.90;;;;;;4996974;28;20710;-79
2023/03/23 01:55:28;;;;;;;13.50;10.53;;;9.00;99.90;;;;;;4982616;28;20221;-80
2023/03/23 01:57:57;;;;;;;14.30;9.93;;;9.00;99.90;;;;;;4979325;28;20326;-79
2023/03/23 02:00:26;;;;;;;12.60;10.30;;;9.10;99.90;;;;;;4980257;28;20237;-79
2023/03/23 02:02:55;;;;;;;15.97;11.63;;;9.10;99.90;;;;;;4981109;28;20310;-79
2023/03/23 02:05:28;;;;;;;14.23;10.80;;;9.10;99.90;;;;;;4981790;28;20796;-79
2023/03/23 02:08:02;;;;;;;15.37;10.10;;;9.10;99.90;;;;;;4972764;28;20283;-79
2023/03/23 02:10:33;;;;;;;14.57;10.93;;;9.10;99.90;;;;;;4979852;28;20231;-79
2023/03/23 02:13:01;;;;;;;12.83;10.43;;;9.10;99.90;;;;;;4995894;28;20640;-79
2023/03/23 02:15:36;;;;;;;13.03;10.37;;;9.10;99.90;;;;;;4979456;28;20304;-80
2023/03/23 02:18:09;;;;;;;12.50;10.53;;;9.10;99.90;;;;;;4981076;28;20766;-80
2023/03/23 02:20:59;;;;;;;13.43;10.30;;;9.10;99.90;;;;;;4992666;28;20229;-80
2023/03/23 02:23:54;;;;;;;14.93;10.87;;;9.10;99.90;;;;;;4976656;28;20311;-79
2023/03/23 02:26:36;;;;;;;12.33;9.47;;;9.00;99.90;;;;;;4971008;28;21896;-79
2023/03/23 02:29:26;;;;;;;14.50;10.50;;;9.10;99.90;;;;;;4972680;28;20226;-80
2023/03/23 02:32:06;;;;;;;12.10;10.07;;;9.10;99.90;;;;;;4975617;28;20429;-80
2023/03/23 02:34:41;;;;;;;12.47;10.63;;;9.10;99.90;;;;;;4976236;28;20596;-80
2023/03/23 02:37:14;;;;;;;13.50;10.93;;;9.00;99.90;;;;;;4978274;28;20948;-79
2023/03/23 02:39:46;;;;;;;12.60;10.60;;;9.10;99.90;;;;;;4976433;28;20283;-81
2023/03/23 02:42:18;;;;;;;12.63;10.87;;;9.10;99.90;;;;;;4976860;28;20236;-80
2023/03/23 02:44:47;;;;;;;15.50;11.40;;;9.10;99.90;;;;;;4978761;28;20308;-81
2023/03/23 02:47:18;;;;;;;14.73;11.13;;;9.10;99.90;;;;;;4980967;28;20920;-80
2023/03/23 02:49:50;;;;;;;11.17;9.93;;;9.10;99.90;;;;;;4984027;28;20844;-80
2023/03/23 02:52:20;;;;;;;13.03;10.67;;;9.10;99.90;;;;;;4977548;28;20282;-79
2023/03/23 02:54:50;;;;;;;13.23;10.33;;;9.10;99.90;;;;;;4999520;28;20297;-80
2023/03/23 02:57:18;;;;;;;13.43;10.60;;;9.10;99.90;;;;;;4976954;28;20223;-80
2023/03/23 02:59:46;;;;;;;12.40;10.23;;;9.20;99.90;;;;;;4979414;28;20261;-82
2023/03/23 03:02:18;;;;;;;12.63;9.90;;;9.20;99.90;;;;;;4973826;28;20242;-81
2023/03/23 03:04:54;;;;;;;14.83;10.53;;;9.20;99.90;;;;;;4979458;28;20225;-80
2023/03/23 03:07:35;;;;;;;14.53;10.10;;;9.20;99.90;;;;;;4982564;28;20462;-81
2023/03/23 03:10:07;;;;;;;11.03;9.43;;;9.20;99.90;;;;;;4978417;28;20224;-81
2023/03/23 03:12:42;;;;;;;11.80;10.47;;;9.30;99.90;;;;;;4980034;28;20235;-82
2023/03/23 03:15:21;;;;;;;12.87;9.17;;;9.20;99.90;;;;;;4980707;28;20915;-83
2023/03/23 03:17:54;;;;;;;11.00;9.63;;;9.20;99.90;;;;;;4978910;28;20289;-78
2023/03/23 03:20:26;;;;;;;12.53;9.57;;;9.30;99.90;;;;;;4982322;28;20583;-77
2023/03/23 03:22:54;;;;;;;10.90;9.40;;;9.30;99.90;;;;;;4995202;28;20275;-78
2023/03/23 03:25:22;;;;;;;10.60;9.47;;;9.30;99.90;;;;;;4978649;28;20232;-77
2023/03/23 03:27:52;;;;;;;12.83;10.77;;;9.30;99.90;;;;;;4979811;28;20219;-77
2023/03/23 03:30:34;;;;;;;9.87;8.73;;;9.30;99.90;;;;;;4981158;28;20232;-78
2023/03/23 03:33:02;;;;;;;13.40;9.50;;;9.40;99.90;;;;;;4999812;28;20310;-78
2023/03/23 03:35:32;;;;;;;13.30;9.90;;;9.40;99.90;;;;;;4982244;28;20237;-79
2023/03/23 03:38:07;;;;;;;12.23;9.53;;;9.40;99.90;;;;;;4978300;28;20229;-79
2023/03/23 03:40:34;;;;;;;11.43;9.53;;;9.40;99.90;;;;;;4979996;28;20228;-77
2023/03/23 03:43:02;;;;;;;10.77;9.30;;;9.40;99.90;;;;;;4997243;28;20764;-79
2023/03/23 03:45:29;;;;;;;12.40;10.13;;;9.40;99.90;;;;;;4980426;28;20248;-79
2023/03/23 03:47:56;;;;;;;12.57;9.67;;;9.40;99.90;;;;;;4982028;28;20233;-79
2023/03/23 03:50:24;;;;;;;10.13;9.13;;;9.30;99.90;;;;;;4996637;28;20802;-78
2023/03/23 03:52:52;;;;;;;10.07;8.83;;;9.40;99.90;;;;;;4980947;28;20221;-79
2023/03/23 03:55:20;;;;;;;12.17;10.00;;;9.40;99.90;;;;;;4981674;28;20230;-77
2023/03/23 03:57:49;;;;;;;10.23;9.00;;;9.40;99.90;;;;;;4979059;28;20222;-77
2023/03/23 04:00:39;;;;;;;10.27;9.27;;;9.40;99.90;;;;;;4983486;28;20236;-77
2023/03/23 04:03:07;;;;;;;10.67;9.30;;;9.40;99.90;;;;;;4982743;28;20221;-77
2023/03/23 04:06:00;;;;;;;11.57;9.60;;;9.40;99.90;;;;;;4982717;28;20703;-79
2023/03/23 04:08:28;;;;;;;13.03;9.73;;;9.40;99.90;;;;;;4981150;28;20290;-78
2023/03/23 04:10:55;;;;;;;12.97;9.17;;;9.40;99.90;;;;;;4979653;28;21048;-79
2023/03/23 04:13:24;;;;;;;11.03;9.30;;;9.50;99.90;;;;;;4999451;28;20216;-78
2023/03/23 04:16:06;;;;;;;11.20;9.13;;;9.50;99.90;;;;;;4976739;28;20257;-78
2023/03/23 04:18:34;;;;;;;10.90;9.50;;;9.50;99.90;;;;;;4978216;28;20227;-78
2023/03/23 04:21:02;;;;;;;11.07;9.43;;;9.60;99.90;;;;;;4982868;28;20225;-77
2023/03/23 04:23:33;;;;;;;10.27;9.17;;;9.60;99.90;;;;;;4977881;28;20749;-78
2023/03/23 04:26:03;;;;;;;12.47;9.10;;;9.70;99.90;;;;;;4979411;28;20232;-77
2023/03/23 04:28:36;;;;;;;12.00;9.37;;;9.70;99.90;;;;;;4976855;28;20277;-79
2023/03/23 04:31:44;;;;;;;10.83;9.73;;;9.60;99.90;;;;;;4995583;28;20241;-78
2023/03/23 04:34:35;;;;;;;9.97;8.97;;;9.60;99.90;;;;;;5004192;28;20723;-79
2023/03/23 04:37:01;;;;;;;10.83;9.37;;;9.60;99.90;;;;;;4978909;28;20226;-76
2023/03/23 04:39:33;;;;;;;12.13;10.07;;;9.60;99.90;;;;;;4982089;28;20304;-77
2023/03/23 04:42:02;;;;;;;10.43;9.20;;;9.70;99.90;;;;;;4998120;28;20219;-77
2023/03/23 04:44:55;;;;;;;11.70;9.10;;;9.70;99.90;;;;;;4986367;28;20316;-78
2023/03/23 04:47:29;;;;;;;10.07;8.93;;;9.70;99.90;;;;;;4982462;28;20244;-77
2023/03/23 04:49:59;;;;;;;11.50;10.07;;;9.70;99.90;;;;;;4981819;28;20218;-77
2023/03/23 04:52:33;;;;;;;10.40;9.30;;;9.70;99.90;;;;;;5001501;28;20237;-78
2023/03/23 04:55:06;;;;;;;11.67;9.23;;;9.60;99.90;;;;;;4977492;28;20237;-78
2023/03/23 04:57:35;;;;;;;10.93;9.80;;;9.70;99.90;;;;;;4978918;28;20237;-78
2023/03/23 05:00:33;;;;;;;10.93;9.40;;;9.60;99.90;;;;;;4980958;28;20234;-77
2023/03/23 05:03:01;;;;;;;11.27;9.40;;;9.70;99.90;;;;;;4978286;28;20760;-76
2023/03/23 05:05:30;;;;;;;12.30;9.93;;;9.70;99.90;;;;;;4981060;28;20221;-78
2023/03/23 05:07:58;;;;;;;11.57;9.60;;;9.70;99.90;;;;;;4984656;28;20228;-78
2023/03/23 05:10:29;;;;;;;10.90;9.80;;;9.60;99.90;;;;;;4980201;28;20534;-79
2023/03/23 05:13:01;;;;;;;12.43;10.07;;;9.70;99.90;;;;;;4980792;28;20236;-78
2023/03/23 05:15:28;;;;;;;12.00;9.83;;;9.70;99.90;;;;;;4982145;28;20229;-78
2023/03/23 05:17:58;;;;;;;10.63;9.53;;;9.70;99.90;;;;;;4981069;28;20257;-78
2023/03/23 05:20:25;;;;;;;11.93;9.63;;;9.80;99.90;;;;;;4978572;28;21489;-78
2023/03/23 05:23:10;;;;;;;11.97;9.50;;;9.80;99.90;;;;;;4987263;28;20232;-79
2023/03/23 05:25:40;;;;;;;13.87;9.53;;;9.80;99.90;;;;;;5008203;28;20920;-79
2023/03/23 05:28:13;;;;;;;11.27;9.03;;;9.80;99.90;;;;;;5005288;28;20278;-79
2023/03/23 05:30:52;;;;;;;9.97;8.87;;;9.80;99.90;;;;;;4988072;28;20226;-80
2023/03/23 05:33:20;;;;;;;13.30;8.67;;;9.80;99.90;;;;;;5002482;28;20221;-81
2023/03/23 05:36:13;;;;;;;10.87;8.43;;;9.90;99.90;;;;;;4981583;28;20225;-80
2023/03/23 05:38:59;;;;;;;11.07;8.93;;;9.90;99.90;;;;;;4984957;28;20221;-78
2023/03/23 05:41:29;;;;;;;10.40;8.33;;;9.90;99.90;;;;;;4983328;28;20782;-79
2023/03/23 05:43:56;;;;;;;8.20;7.37;;;10.00;99.90;;;;;;5003842;28;20233;-79
2023/03/23 05:46:27;;;;;;;8.87;7.37;;;10.00;99.90;;;;;;4982097;28;20253;-79
2023/03/23 05:48:58;;;;;;;9.80;6.87;;;10.00;99.90;;;;;;4985118;28;20307;-80
2023/03/23 05:51:32;;;;;;;9.03;7.17;;;10.00;99.90;;;;;;4986095;28;20222;-78
2023/03/23 05:53:59;;;;;;;9.27;7.13;;;10.00;99.90;;;;;;4980642;28;20226;-79
2023/03/23 05:56:26;;;;;;;8.40;6.67;;;10.00;99.90;;;;;;4985515;28;20259;-79
2023/03/23 05:59:17;;;;;;;8.50;6.57;;;10.00;99.90;;;;;;5003138;28;20248;-79
2023/03/23 06:01:46;;;;;;;6.70;6.03;;;10.00;99.90;;;;;;4983368;28;20367;-81
2023/03/23 06:04:13;;;;;;;12.70;6.70;;;10.00;99.90;;;;;;4986716;28;20317;-81
2023/03/23 06:06:47;;;;;;;7.70;6.90;;;10.10;99.90;;;;;;4981744;28;20221;-79
2023/03/23 06:09:16;;;;;;;9.23;6.27;;;10.00;99.90;;;;;;4988229;28;20279;-79
2023/03/23 06:12:21;;;;;;;8.20;5.83;;;10.00;99.90;;;;;;5006200;28;20221;-79
2023/03/23 06:14:59;;;;;;;8.10;6.07;;;10.00;99.90;;;;;;4983586;28;20244;-78
2023/03/23 06:17:41;;;;;;;6.80;5.73;;;10.00;99.90;;;;;;4986263;28;20232;-81
2023/03/23 06:20:09;;;;;;;7.23;5.90;;;10.00;99.90;;;;;;5001105;28;20215;-80
2023/03/23 06:22:39;;;;;;;6.97;5.13;;;9.90;99.90;;;;;;4985546;28;20836;-79
2023/03/23 06:25:25;;;;;;;6.77;5.50;;;9.90;99.90;;;;;;4983711;28;20319;-79
2023/03/23 06:27:52;;;;;;;7.77;5.53;;;9.90;99.90;;;;;;4981328;28;20236;-79
2023/03/23 06:30:21;;;;;;;8.30;5.83;;;9.90;99.90;;;;;;4983309;28;20221;-79
2023/03/23 06:32:48;;;;;;;6.43;5.30;;;9.90;99.90;;;;;;5003932;28;20256;-79
2023/03/23 06:35:17;;;;;;;7.03;5.40;;;9.90;99.90;;;;;;4987963;28;20232;-80
2023/03/23 06:38:16;;;;;;;7.17;5.10;;;9.90;99.90;;;;;;4984195;28;20235;-80
2023/03/23 06:40:54;;;;;;;5.37;4.70;;;9.90;99.90;;;;;;5003861;28;20214;-80
2023/03/23 06:43:21;;;;;;;6.97;5.00;;;9.90;99.90;;;;;;4989399;28;20228;-79
2023/03/23 06:46:01;;;;;;;6.87;4.57;;;9.90;99.90;;;;;;4988559;28;20335;-79
2023/03/23 06:48:28;;;;;;;6.07;4.77;;;9.90;99.90;;;;;;4982864;28;20315;-79
2023/03/23 06:50:55;;;;;;;6.50;4.40;;;10.00;99.90;;;;;;4997980;28;20227;-79
2023/03/23 06:53:24;;;;;;;7.23;4.33;;;9.90;99.90;;;;;;4977962;28;20697;-79
2023/03/23 06:55:54;;;;;;;6.40;4.13;;;10.00;99.90;;;;;;4978928;28;20304;-80
2023/03/23 06:58:23;;;;;;;6.40;4.73;;;10.00;99.90;;;;;;4978401;28;20643;-79
2023/03/23 07:00:55;;;;;;;3.97;3.57;;;10.00;99.90;;;;;;4998756;28;20243;-79
2023/03/23 07:03:23;;;;;;;5.33;4.10;;;10.10;99.90;;;;;;4973593;28;20218;-80
2023/03/23 07:05:49;;;;;;;7.27;3.97;;;10.10;99.90;;;;;;5006452;28;20218;-79
2023/03/23 07:08:18;;;;;;;6.90;4.10;;;10.20;99.90;;;;;;4989488;28;20703;-80
2023/03/23 07:10:52;;;;;;;5.93;4.13;;;10.10;99.90;;;;;;4984860;28;20689;-80
2023/03/23 07:13:19;;;;;;;6.43;4.33;;;10.20;99.90;;;;;;4988585;28;20226;-80
2023/03/23 07:15:51;;;;;;;4.10;3.50;;;10.30;99.90;;;;;;4984030;28;20236;-80
2023/03/23 07:18:18;;;;;;;6.20;3.73;;;10.30;99.90;;;;;;5004764;28;20222;-80
2023/03/23 07:20:50;;;;;;;5.33;3.40;;;10.50;99.90;;;;;;4985084;28;20244;-80
2023/03/23 07:23:18;;;;;;;7.87;3.93;;;10.50;99.90;;;;;;4989380;28;20230;-80
2023/03/23 07:25:50;;;;;;;4.87;3.57;;;10.60;99.90;;;;;;4987592;28;20233;-80
2023/03/23 07:28:22;;;;;;;6.17;3.77;;;10.70;99.90;;;;;;4988073;28;20226;-79
2023/03/23 07:30:52;;;;;;;5.90;4.00;;;10.90;99.90;;;;;;4987317;28;20304;-80
2023/03/23 07:33:19;;;;;;;4.13;3.40;;;10.90;99.90;;;;;;4989526;28;20224;-79
2023/03/23 07:35:47;;;;;;;4.30;3.33;;;11.00;99.90;;;;;;4989657;28;20214;-79
2023/03/23 07:38:17;;;;;;;5.13;3.87;;;11.10;99.90;;;;;;4985801;28;20518;-79
2023/03/23 07:40:48;;;;;;;9.13;3.37;;;11.10;99.90;;;;;;4983753;28;20229;-79
2023/03/23 07:43:17;;;;;;;5.03;3.60;;;11.20;99.90;;;;;;5003910;28;20246;-80
2023/03/23 07:46:02;;;;;;;5.07;3.20;;;11.20;99.90;;;;;;4989272;28;20226;-79
2023/03/23 07:48:38;;;;;;;3.43;2.90;;;11.30;99.90;;;;;;4989417;28;20226;-80
2023/03/23 07:51:06;;;;;;;5.97;3.40;;;11.30;99.90;;;;;;4986760;28;20231;-78
2023/03/23 07:53:35;;;;;;;4.90;3.40;;;11.40;99.90;;;;;;4992016;28;20236;-79
2023/03/23 07:56:18;;;;;;;5.37;3.23;;;11.50;99.90;;;;;;4982333;28;20253;-80
2023/03/23 07:58:51;;;;;;;4.63;3.50;;;11.50;99.90;;;;;;4989191;28;20221;-78
2023/03/23 08:01:18;;;;;;;3.00;2.70;;;11.50;99.90;;;;;;5003467;28;20226;-79
2023/03/23 08:03:57;;;;;;;3.60;3.23;;;11.60;99.90;;;;;;4985082;28;20307;-79
2023/03/23 08:06:39;;;;;;;4.10;3.20;;;11.60;99.90;;;;;;4988112;28;20239;-80
2023/03/23 08:09:18;;;;;;;4.13;3.30;;;11.60;99.90;;;;;;5005676;28;20608;-79
2023/03/23 08:11:51;;;;;;;4.77;4.20;;;11.60;99.90;;;;;;4993251;28;20224;-80
2023/03/23 08:14:38;;;;;;;3.97;3.50;;;11.50;99.90;;;;;;4993047;28;20244;-79
2023/03/23 08:17:27;;;;;;;4.17;3.57;;;11.50;99.90;;;;;;4990383;28;20220;-79
2023/03/23 08:20:19;;;;;;;5.60;4.00;;;11.50;99.90;;;;;;4989594;28;20716;-80
2023/03/23 08:22:58;;;;;;;4.27;3.43;;;11.50;99.90;;;;;;4994030;28;20701;-79
2023/03/23 08:25:47;;;;;;;5.57;4.00;;;11.50;99.90;;;;;;4989713;28;20490;-80
2023/03/23 08:28:34;;;;;;;4.20;3.80;;;11.60;99.90;;;;;;4991319;28;20235;-81
2023/03/23 08:31:27;;;;;;;5.67;3.80;;;11.50;99.90;;;;;;4987560;28;20226;-81
2023/03/23 08:34:08;;;;;;;4.73;3.93;;;11.50;99.90;;;;;;4985439;28;20223;-77
2023/03/23 08:36:46;;;;;;;5.83;3.83;;;11.50;99.90;;;;;;4999922;28;20746;-77
2023/03/23 08:39:36;;;;;;;6.67;3.63;;;11.50;99.90;;;;;;4982886;28;20723;-78
2023/03/23 08:42:15;;;;;;;6.73;4.10;;;11.40;99.90;;;;;;5000849;28;20227;-77
2023/03/23 08:45:07;;;;;;;4.50;4.10;;;11.40;99.90;;;;;;4985907;28;20230;-77
2023/03/23 08:48:07;;;;;;;6.40;3.23;;;11.20;99.90;;;;;;4981141;28;20223;-76
2023/03/23 08:50:35;;;;;;;2.60;1.60;;;11.20;99.90;;;;;;4986306;28;20374;-77
2023/03/23 08:53:12;;;;;;;3.90;1.40;;;11.00;99.90;;;;;;4980693;28;20223;-77
2023/03/23 08:55:45;;;;;;;1.97;1.17;;;10.90;99.90;;;;;;4985474;28;20233;-76
2023/03/23 08:58:25;;;;;;;2.13;1.17;;;10.80;99.90;;;;;;4978760;28;20229;-77
2023/03/23 09:01:17;;;;;;;2.70;1.40;;;10.80;99.90;;;;;;4980043;28;20254;-77
2023/03/23 09:03:44;;;;;;;2.33;2.07;;;10.70;99.90;;;;;;4985379;28;20235;-77
2023/03/23 09:06:35;;;;;;;2.90;2.50;;;10.80;99.90;;;;;;4975530;28;20235;-77
2023/03/23 09:09:06;;;;;;;3.03;2.73;;;10.80;99.90;;;;;;4985922;28;20785;-76
2023/03/23 09:11:33;;;;;;;5.37;4.30;;;10.90;99.90;;;;;;4981586;28;20722;-78
2023/03/23 09:14:01;;;;;;;5.43;4.13;;;11.00;99.90;;;;;;4986960;28;20221;-77
2023/03/23 09:16:28;;;;;;;6.97;4.70;;;11.10;99.90;;;;;;4983011;28;20232;-78
2023/03/23 09:18:56;;;;;;;5.23;3.67;;;11.30;99.90;;;;;;4986059;28;20221;-82
2023/03/23 09:21:23;;;;;;;5.93;3.90;;;11.50;99.90;;;;;;4982820;28;20341;-82
2023/03/23 09:23:51;;;;;;;6.37;3.67;;;11.70;99.90;;;;;;4985979;28;20226;-82
2023/03/23 09:26:18;;;;;;;5.70;2.80;;;11.90;99.90;;;;;;4987124;28;20242;-82
2023/03/23 09:28:45;;;;;;;6.77;2.80;;;12.00;99.90;;;;;;4986191;28;20231;-81
2023/03/23 09:31:13;;;;;;;7.93;2.30;;;12.20;99.90;;;;;;4986826;28;20276;-82
2023/03/23 09:33:40;;;;;;;5.77;2.30;;;12.20;99.90;;;;;;4986268;28;20324;-82
2023/03/23 09:36:12;;;;;;;7.80;2.10;;;12.20;99.90;;;;;;4985024;28;20244;-82
2023/03/23 09:38:41;;;;;;;5.93;2.17;;;12.20;99.90;;;;;;4986089;28;20785;-80
2023/03/23 09:41:22;;;;;;;7.37;2.53;;;12.10;99.90;;;;;;4985751;28;20223;-80
2023/03/23 09:44:02;;;;;;;8.27;2.40;;;12.10;99.90;;;;;;4984475;28;20228;-80
2023/03/23 09:46:43;;;;;;;8.07;2.30;;;12.00;99.90;;;;;;5000742;28;20234;-80
2023/03/23 09:49:13;;;;;;;8.70;2.73;;;12.00;99.90;;;;;;4995524;28;20226;-80
2023/03/23 09:51:44;;;;;;;5.83;2.17;;;12.00;99.90;;;;;;4985497;28;20278;-80
2023/03/23 09:54:17;;;;;;;6.50;2.17;;;11.90;99.90;;;;;;4984245;28;20260;-80
2023/03/23 09:56:46;;;;;;;8.77;2.50;;;11.90;99.90;;;;;;4981161;28;20806;-80
2023/03/23 09:59:19;;;;;;;8.33;2.33;;;11.90;99.90;;;;;;4983367;28;20318;-80
2023/03/23 10:01:50;;;;;;;5.73;2.10;;;12.00;99.90;;;;;;4985411;28;20654;-80
2023/03/23 10:04:26;;;;;;;8.37;2.73;;;12.20;99.90;;;;;;4980869;28;20281;-80
2023/03/23 10:06:54;;;;;;;6.90;2.13;;;12.40;99.90;;;;;;4983127;28;20319;-80
2023/03/23 10:09:21;;;;;;;9.67;2.93;;;12.60;99.90;;;;;;4986460;28;20845;-80
2023/03/23 10:11:57;;;;;;;8.03;2.77;;;12.90;99.90;;;;;;4985896;28;20244;-80
2023/03/23 10:14:37;;;;;;;8.80;2.37;;;13.20;99.90;;;;;;4983787;28;21937;-79
2023/03/23 10:17:13;;;;;;;7.90;2.10;;;13.40;99.90;;;;;;4974865;28;20316;-80
2023/03/23 10:19:47;;;;;;;6.67;2.13;;;13.50;99.90;;;;;;4979053;28;20233;-79
2023/03/23 10:22:19;;;;;;;6.37;1.90;;;13.60;99.90;;;;;;4981474;28;20232;-80
2023/03/23 10:24:51;;;;;;;5.80;2.70;;;13.60;99.90;;;;;;4978628;28;20249;-80
2023/03/23 10:27:25;;;;;;;9.70;2.10;;;13.50;99.90;;;;;;4981119;28;20232;-79
2023/03/23 10:29:58;;;;;;;8.63;2.20;;;13.50;99.90;;;;;;4996404;28;20817;-80
2023/03/23 10:32:40;;;;;;;8.07;2.80;;;13.60;99.90;;;;;;4981394;28;20230;-80
2023/03/23 10:35:13;;;;;;;11.10;2.50;;;13.70;99.90;;;;;;4982619;28;20273;-79
2023/03/23 10:37:43;;;;;;;11.07;2.70;;;13.70;99.90;;;;;;4976356;28;20235;-80
2023/03/23 10:40:15;;;;;;;5.83;2.20;;;13.80;99.90;;;;;;4980920;28;20227;-80
2023/03/23 10:42:42;;;;;;;8.97;2.23;;;13.70;99.90;;;;;;4982504;28;20899;-79
2023/03/23 10:45:18;;;;;;;11.83;2.47;;;13.70;99.90;;;;;;4982795;28;20223;-79
2023/03/23 10:47:50;;;;;;;8.13;2.03;;;13.70;99.90;;;;;;4981049;28;20903;-80
2023/03/23 10:50:23;;;;;;;7.93;2.53;;;13.70;99.90;;;;;;4980823;28;20225;-80
2023/03/23 10:52:53;;;;;;;10.03;2.53;;;13.60;99.90;;;;;;4994852;28;20249;-79
2023/03/23 10:55:23;;;;;;;8.83;2.30;;;13.60;99.90;;;;;;4983300;28;20232;-79
2023/03/23 10:58:01;;;;;;;6.87;2.33;;;13.50;99.90;;;;;;4982211;28;20223;-79
2023/03/23 11:00:29;;;;;;;6.97;2.40;;;13.40;99.90;;;;;;4980612;28;20722;-80
2023/03/23 11:03:02;;;;;;;8.13;2.57;;;13.40;99.90;;;;;;4979701;28;20229;-79
2023/03/23 11:05:39;;;;;;;9.67;2.13;;;13.30;99.90;;;;;;4976597;28;20225;-79
2023/03/23 11:08:13;;;;;;;8.97;2.63;;;13.30;99.90;;;;;;4995433;28;20233;-80
2023/03/23 11:10:42;;;;;;;8.53;2.07;;;13.20;99.90;;;;;;4981710;28;20226;-79
2023/03/23 11:13:14;;;;;;;9.13;2.60;;;13.20;99.90;;;;;;4982988;28;20219;-80
2023/03/23 11:15:42;;;;;;;7.10;2.53;;;13.30;99.90;;;;;;4982860;28;20315;-79
2023/03/23 11:18:12;;;;;;;8.10;2.70;;;13.30;99.90;;;;;;4983778;28;20228;-79
2023/03/23 11:20:42;;;;;;;8.10;2.63;;;13.30;99.90;;;;;;4982926;28;20247;-80
2023/03/23 11:23:11;;;;;;;8.77;2.60;;;13.40;99.90;;;;;;4984580;28;20760;-80
2023/03/23 11:25:58;;;;;;;10.77;3.20;;;13.40;99.90;;;;;;4985463;28;20225;-79
2023/03/23 11:28:32;;;;;;;12.17;3.17;;;13.40;99.90;;;;;;4980759;28;20809;-79
2023/03/23 11:31:01;;;;;;;8.53;2.57;;;13.50;99.90;;;;;;4981366;28;20233;-80
2023/03/23 11:33:36;;;;;;;8.53;2.60;;;13.60;99.90;;;;;;4983684;28;20231;-80
2023/03/23 11:36:03;;;;;;;8.73;2.70;;;13.60;99.90;;;;;;4983696;28;20230;-80
2023/03/23 11:38:30;;;;;;;9.30;2.57;;;13.70;99.90;;;;;;4985962;28;20233;-79
2023/03/23 11:40:58;;;;;;;8.00;2.80;;;13.70;99.90;;;;;;4981956;28;20242;-80
2023/03/23 11:43:26;;;;;;;11.43;3.40;;;13.70;99.90;;;;;;4982180;28;20227;-79
2023/03/23 11:46:03;;;;;;;7.07;2.50;;;13.70;99.90;;;;;;4983251;28;20232;-80
2023/03/23 11:48:39;;;;;;;9.27;2.87;;;13.70;99.90;;;;;;4984273;28;20302;-80
2023/03/23 11:51:12;;;;;;;8.80;2.80;;;13.80;99.90;;;;;;4981939;28;20223;-79
2023/03/23 11:53:48;;;;;;;7.57;2.83;;;13.90;99.90;;;;;;4975620;28;20236;-79
2023/03/23 11:56:23;;;;;;;9.53;3.00;;;13.90;99.90;;;;;;4982830;28;20306;-79
2023/03/23 11:58:50;;;;;;;10.13;2.87;;;14.00;99.90;;;;;;4983584;28;20226;-79
2023/03/23 12:01:27;;;;;;;9.57;2.33;;;14.10;99.90;;;;;;4983143;28;20724;-80
2023/03/23 12:04:35;;;;;;;10.70;3.27;;;14.10;99.90;;;;;;4982275;28;20742;-80
2023/03/23 12:07:28;;;;;;;7.70;2.87;;;14.20;99.90;;;;;;4971517;28;20280;-80
2023/03/23 12:10:04;;;;;;;10.83;3.10;;;14.20;99.90;;;;;;4978516;28;20228;-79
2023/03/23 12:12:39;;;;;;;9.07;3.03;;;14.10;99.90;;;;;;4984836;28;20236;-80
2023/03/23 12:15:14;;;;;;;9.13;3.00;;;14.00;99.90;;;;;;4983680;28;20302;-79
2023/03/23 12:17:49;;;;;;;8.00;2.67;;;13.90;99.90;;;;;;4980647;28;20831;-79
2023/03/23 12:20:32;;;;;;;10.50;3.30;;;13.90;99.90;;;;;;4981257;28;20230;-79
2023/03/23 12:23:13;;;;;;;6.67;2.80;;;13.80;99.90;;;;;;4981534;28;20903;-80
2023/03/23 12:25:58;;;;;;;11.93;2.87;;;13.80;99.90;;;;;;4980911;28;20229;-81
2023/03/23 12:28:36;;;;;;;5.20;2.70;;;13.70;99.90;;;;;;4982036;28;20231;-81
2023/03/23 12:31:10;;;;;;;9.97;2.93;;;13.60;99.90;;;;;;4981416;28;20242;-82
2023/03/23 12:33:50;;;;;;;6.93;2.57;;;13.40;99.90;;;;;;4994571;28;20310;-81
2023/03/23 12:36:27;;;;;;;9.93;3.30;;;13.30;99.90;;;;;;4985031;28;20319;-81
2023/03/23 12:39:10;;;;;;;7.93;3.40;;;13.10;99.90;;;;;;4981640;28;20891;-81
2023/03/23 12:41:44;;;;;;;6.73;2.83;;;13.00;99.90;;;;;;4977017;28;21151;-81
2023/03/23 12:44:14;;;;;;;8.90;3.10;;;12.80;99.90;;;;;;4981693;28;20222;-81
2023/03/23 12:46:58;;;;;;;10.43;4.03;;;12.70;99.90;;;;;;4983749;28;20247;-81
2023/03/23 12:49:30;;;;;;;7.33;3.27;;;12.60;99.90;;;;;;4980568;28;20264;-81
2023/03/23 12:52:02;;;;;;;7.47;3.10;;;12.60;99.90;;;;;;4980278;28;20251;-81
2023/03/23 12:54:34;;;;;;;8.80;2.87;;;12.50;99.90;;;;;;4982224;28;20234;-81
2023/03/23 12:57:08;;;;;;;8.33;2.90;;;12.50;99.90;;;;;;4982542;28;20235;-82
2023/03/23 12:59:41;;;;;;;7.27;2.97;;;12.40;99.90;;;;;;4986008;28;20904;-80
2023/03/23 13:02:19;;;;;;;10.50;3.10;;;12.40;99.90;;;;;;4980754;28;20313;-81
2023/03/23 13:04:48;;;;;;;10.77;3.27;;;12.20;99.90;;;;;;4984979;28;20229;-81
2023/03/23 13:07:21;;;;;;;10.40;2.80;;;12.20;99.90;;;;;;4981270;28;20316;-82
2023/03/23 13:09:56;;;;;;;10.80;3.47;;;12.10;99.90;;;;;;4974962;28;20328;-81
2023/03/23 13:12:24;;;;;;;13.17;4.10;;;12.10;99.90;;;;;;5004232;28;20223;-82
2023/03/23 13:15:06;;;;;;;8.20;3.57;;;12.10;99.90;;;;;;4975814;28;20224;-80
2023/03/23 13:17:45;;;;;;;11.10;3.40;;;12.30;99.90;;;;;;4983748;28;20248;-80